sensor_id;sensor_type;location;lat;lon;timestamp;P1;durP1;ratioP1;P2;durP2;ratioP2
18532;SDS011;9396;51.510;11.934;2023-12-20T00:00:14;4.77;;;4.13;;
18532;SDS011;9396;51.510;11.934;2023-12-20T00:02:41;4.10;;;3.60;;
18532;SDS011;9396;51.510;11.934;2023-12-20T00:05:12;4.30;;;3.90;;
18532;SDS011;9396;51.510;11.934;2023-12-20T00:07:38;5.77;;;4.30;;
18532;SDS011;9396;51.510;11.934;2023-12-20T00:10:05;6.07;;;4.10;;
18532;SDS011;9396;51.510;11.934;2023-12-20T00:12:32;4.97;;;4.13;;
18532;SDS011;9396;51.510;11.934;2023-12-20T00:15:00;5.53;;;4.00;;
18532;SDS011;9396;51.510;11.934;2023-12-20T00:17:27;4.67;;;3.90;;
18532;SDS011;9396;51.510;11.934;2023-12-20T00:19:53;4.73;;;4.20;;
18532;SDS011;9396;51.510;11.934;2023-12-20T00:22:20;8.30;;;4.00;;
18532;SDS011;9396;51.510;11.934;2023-12-20T00:24:46;4.57;;;4.07;;
18532;SDS011;9396;51.510;11.934;2023-12-20T00:27:13;4.77;;;4.30;;
18532;SDS011;9396;51.510;11.934;2023-12-20T00:29:40;5.20;;;4.63;;
18532;SDS011;9396;51.510;11.934;2023-12-20T00:32:09;6.73;;;4.37;;
18532;SDS011;9396;51.510;11.934;2023-12-20T00:34:36;5.97;;;4.13;;
18532;SDS011;9396;51.510;11.934;2023-12-20T00:37:02;5.77;;;4.47;;
18532;SDS011;9396;51.510;11.934;2023-12-20T00:39:29;4.40;;;4.00;;
18532;SDS011;9396;51.510;11.934;2023-12-20T00:41:56;4.73;;;4.20;;
18532;SDS011;9396;51.510;11.934;2023-12-20T00:44:22;6.13;;;4.23;;
18532;SDS011;9396;51.510;11.934;2023-12-20T00:46:49;5.97;;;4.50;;
18532;SDS011;9396;51.510;11.934;2023-12-20T00:49:17;6.23;;;4.13;;
18532;SDS011;9396;51.510;11.934;2023-12-20T00:51:44;5.03;;;3.93;;
18532;SDS011;9396;51.510;11.934;2023-12-20T00:54:12;5.97;;;4.53;;
18532;SDS011;9396;51.510;11.934;2023-12-20T00:56:38;5.17;;;4.40;;
18532;SDS011;9396;51.510;11.934;2023-12-20T00:59:05;5.00;;;4.50;;
18532;SDS011;9396;51.510;11.934;2023-12-20T01:01:31;5.17;;;4.30;;
18532;SDS011;9396;51.510;11.934;2023-12-20T01:03:58;5.23;;;4.50;;
18532;SDS011;9396;51.510;11.934;2023-12-20T01:06:26;4.70;;;4.20;;
18532;SDS011;9396;51.510;11.934;2023-12-20T01:08:53;5.73;;;4.23;;
18532;SDS011;9396;51.510;11.934;2023-12-20T01:11:19;5.10;;;4.53;;
18532;SDS011;9396;51.510;11.934;2023-12-20T01:13:47;4.80;;;4.20;;
18532;SDS011;9396;51.510;11.934;2023-12-20T01:16:13;4.93;;;4.20;;
18532;SDS011;9396;51.510;11.934;2023-12-20T01:18:40;5.17;;;4.40;;
18532;SDS011;9396;51.510;11.934;2023-12-20T01:21:07;4.70;;;4.20;;
18532;SDS011;9396;51.510;11.934;2023-12-20T01:23:35;4.93;;;4.43;;
18532;SDS011;9396;51.510;11.934;2023-12-20T01:26:01;5.00;;;4.50;;
18532;SDS011;9396;51.510;11.934;2023-12-20T01:28:29;4.30;;;3.90;;
18532;SDS011;9396;51.510;11.934;2023-12-20T01:30:56;5.03;;;4.53;;
18532;SDS011;9396;51.510;11.934;2023-12-20T01:33:23;4.77;;;4.13;;
18532;SDS011;9396;51.510;11.934;2023-12-20T01:35:50;4.73;;;4.23;;
18532;SDS011;9396;51.510;11.934;2023-12-20T01:38:17;4.90;;;3.97;;
18532;SDS011;9396;51.510;11.934;2023-12-20T01:40:46;4.73;;;4.10;;
18532;SDS011;9396;51.510;11.934;2023-12-20T01:43:13;4.93;;;4.30;;
18532;SDS011;9396;51.510;11.934;2023-12-20T01:45:39;4.07;;;3.67;;
18532;SDS011;9396;51.510;11.934;2023-12-20T01:48:07;5.00;;;4.13;;
18532;SDS011;9396;51.510;11.934;2023-12-20T01:50:35;5.20;;;3.87;;
18532;SDS011;9396;51.510;11.934;2023-12-20T01:53:02;3.80;;;3.40;;
18532;SDS011;9396;51.510;11.934;2023-12-20T01:55:31;4.20;;;3.80;;
18532;SDS011;9396;51.510;11.934;2023-12-20T01:58:02;4.87;;;3.90;;
18532;SDS011;9396;51.510;11.934;2023-12-20T02:00:29;4.23;;;3.47;;
18532;SDS011;9396;51.510;11.934;2023-12-20T02:02:57;4.07;;;3.67;;
18532;SDS011;9396;51.510;11.934;2023-12-20T02:05:27;4.30;;;3.50;;
18532;SDS011;9396;51.510;11.934;2023-12-20T02:07:54;4.43;;;4.03;;
18532;SDS011;9396;51.510;11.934;2023-12-20T02:10:21;4.10;;;3.70;;
18532;SDS011;9396;51.510;11.934;2023-12-20T02:12:48;4.70;;;4.23;;
18532;SDS011;9396;51.510;11.934;2023-12-20T02:15:16;4.73;;;4.10;;
18532;SDS011;9396;51.510;11.934;2023-12-20T02:17:42;4.60;;;4.10;;
18532;SDS011;9396;51.510;11.934;2023-12-20T02:20:10;4.73;;;4.30;;
18532;SDS011;9396;51.510;11.934;2023-12-20T02:22:38;6.33;;;4.10;;
18532;SDS011;9396;51.510;11.934;2023-12-20T02:25:05;5.10;;;4.33;;
18532;SDS011;9396;51.510;11.934;2023-12-20T02:27:32;6.03;;;4.60;;
18532;SDS011;9396;51.510;11.934;2023-12-20T02:30:00;5.37;;;4.07;;
18532;SDS011;9396;51.510;11.934;2023-12-20T02:32:28;4.67;;;3.97;;
18532;SDS011;9396;51.510;11.934;2023-12-20T02:34:55;5.27;;;4.00;;
18532;SDS011;9396;51.510;11.934;2023-12-20T02:37:22;4.87;;;4.33;;
18532;SDS011;9396;51.510;11.934;2023-12-20T02:39:50;4.87;;;4.13;;
18532;SDS011;9396;51.510;11.934;2023-12-20T02:42:16;6.47;;;5.03;;
18532;SDS011;9396;51.510;11.934;2023-12-20T02:44:43;4.90;;;4.40;;
18532;SDS011;9396;51.510;11.934;2023-12-20T02:47:10;5.97;;;4.83;;
18532;SDS011;9396;51.510;11.934;2023-12-20T02:49:36;5.13;;;4.53;;
18532;SDS011;9396;51.510;11.934;2023-12-20T02:52:03;5.03;;;4.40;;
18532;SDS011;9396;51.510;11.934;2023-12-20T02:54:30;5.20;;;4.53;;
18532;SDS011;9396;51.510;11.934;2023-12-20T02:56:58;5.17;;;4.67;;
18532;SDS011;9396;51.510;11.934;2023-12-20T02:59:25;5.13;;;4.33;;
18532;SDS011;9396;51.510;11.934;2023-12-20T03:01:52;5.03;;;4.53;;
18532;SDS011;9396;51.510;11.934;2023-12-20T03:04:18;4.90;;;4.40;;
18532;SDS011;9396;51.510;11.934;2023-12-20T03:06:45;6.40;;;4.77;;
18532;SDS011;9396;51.510;11.934;2023-12-20T03:09:11;5.30;;;4.67;;
18532;SDS011;9396;51.510;11.934;2023-12-20T03:11:38;10.90;;;4.93;;
18532;SDS011;9396;51.510;11.934;2023-12-20T03:14:06;5.70;;;4.47;;
18532;SDS011;9396;51.510;11.934;2023-12-20T03:16:33;5.63;;;4.43;;
18532;SDS011;9396;51.510;11.934;2023-12-20T03:18:59;5.17;;;4.67;;
18532;SDS011;9396;51.510;11.934;2023-12-20T03:21:26;5.13;;;4.60;;
18532;SDS011;9396;51.510;11.934;2023-12-20T03:23:53;6.03;;;4.30;;
18532;SDS011;9396;51.510;11.934;2023-12-20T03:26:19;4.90;;;4.13;;
18532;SDS011;9396;51.510;11.934;2023-12-20T03:28:47;7.20;;;4.63;;
18532;SDS011;9396;51.510;11.934;2023-12-20T03:31:15;4.83;;;4.33;;
18532;SDS011;9396;51.510;11.934;2023-12-20T03:33:42;6.07;;;4.83;;
18532;SDS011;9396;51.510;11.934;2023-12-20T03:36:08;7.20;;;5.17;;
18532;SDS011;9396;51.510;11.934;2023-12-20T03:38:35;6.23;;;5.23;;
18532;SDS011;9396;51.510;11.934;2023-12-20T03:41:01;5.30;;;4.80;;
18532;SDS011;9396;51.510;11.934;2023-12-20T03:43:28;6.30;;;5.30;;
18532;SDS011;9396;51.510;11.934;2023-12-20T03:45:55;5.50;;;4.70;;
18532;SDS011;9396;51.510;11.934;2023-12-20T03:48:22;5.00;;;4.40;;
18532;SDS011;9396;51.510;11.934;2023-12-20T03:50:49;5.97;;;5.23;;
18532;SDS011;9396;51.510;11.934;2023-12-20T03:53:16;5.80;;;5.20;;
18532;SDS011;9396;51.510;11.934;2023-12-20T03:55:42;5.87;;;4.63;;
18532;SDS011;9396;51.510;11.934;2023-12-20T03:58:09;5.47;;;4.87;;
18532;SDS011;9396;51.510;11.934;2023-12-20T04:00:35;6.23;;;5.13;;
18532;SDS011;9396;51.510;11.934;2023-12-20T04:03:02;5.53;;;4.93;;
18532;SDS011;9396;51.510;11.934;2023-12-20T04:05:30;5.83;;;4.50;;
18532;SDS011;9396;51.510;11.934;2023-12-20T04:07:57;6.30;;;5.23;;
18532;SDS011;9396;51.510;11.934;2023-12-20T04:10:25;5.17;;;4.67;;
18532;SDS011;9396;51.510;11.934;2023-12-20T04:12:52;5.83;;;4.70;;
18532;SDS011;9396;51.510;11.934;2023-12-20T04:15:20;6.23;;;5.20;;
18532;SDS011;9396;51.510;11.934;2023-12-20T04:17:46;5.83;;;5.00;;
18532;SDS011;9396;51.510;11.934;2023-12-20T04:20:13;5.10;;;4.60;;
18532;SDS011;9396;51.510;11.934;2023-12-20T04:22:41;5.33;;;4.40;;
18532;SDS011;9396;51.510;11.934;2023-12-20T04:25:08;10.47;;;4.83;;
18532;SDS011;9396;51.510;11.934;2023-12-20T04:27:34;5.07;;;4.53;;
18532;SDS011;9396;51.510;11.934;2023-12-20T04:30:00;6.03;;;4.77;;
18532;SDS011;9396;51.510;11.934;2023-12-20T04:32:27;5.17;;;4.47;;
18532;SDS011;9396;51.510;11.934;2023-12-20T04:34:53;5.20;;;4.37;;
18532;SDS011;9396;51.510;11.934;2023-12-20T04:37:20;4.83;;;4.10;;
18532;SDS011;9396;51.510;11.934;2023-12-20T04:39:48;5.33;;;4.10;;
18532;SDS011;9396;51.510;11.934;2023-12-20T04:42:15;5.57;;;4.63;;
18532;SDS011;9396;51.510;11.934;2023-12-20T04:44:41;5.30;;;4.60;;
18532;SDS011;9396;51.510;11.934;2023-12-20T04:47:08;10.97;;;4.70;;
18532;SDS011;9396;51.510;11.934;2023-12-20T04:49:35;6.03;;;4.70;;
18532;SDS011;9396;51.510;11.934;2023-12-20T04:52:02;4.57;;;4.13;;
18532;SDS011;9396;51.510;11.934;2023-12-20T04:54:29;7.10;;;4.73;;
18532;SDS011;9396;51.510;11.934;2023-12-20T04:56:57;4.97;;;4.47;;
18532;SDS011;9396;51.510;11.934;2023-12-20T04:59:23;5.30;;;4.77;;
18532;SDS011;9396;51.510;11.934;2023-12-20T05:01:50;5.63;;;4.57;;
18532;SDS011;9396;51.510;11.934;2023-12-20T05:04:16;5.27;;;4.47;;
18532;SDS011;9396;51.510;11.934;2023-12-20T05:06:43;5.27;;;3.90;;
18532;SDS011;9396;51.510;11.934;2023-12-20T05:09:10;5.07;;;4.43;;
18532;SDS011;9396;51.510;11.934;2023-12-20T05:11:36;4.43;;;4.00;;
18532;SDS011;9396;51.510;11.934;2023-12-20T05:14:05;4.33;;;3.93;;
18532;SDS011;9396;51.510;11.934;2023-12-20T05:16:32;4.63;;;4.00;;
18532;SDS011;9396;51.510;11.934;2023-12-20T05:18:59;4.90;;;4.37;;
18532;SDS011;9396;51.510;11.934;2023-12-20T05:21:27;5.13;;;4.53;;
18532;SDS011;9396;51.510;11.934;2023-12-20T05:23:53;5.40;;;4.70;;
18532;SDS011;9396;51.510;11.934;2023-12-20T05:26:20;6.13;;;3.80;;
18532;SDS011;9396;51.510;11.934;2023-12-20T05:28:46;6.97;;;4.20;;
18532;SDS011;9396;51.510;11.934;2023-12-20T05:31:14;4.40;;;4.00;;
18532;SDS011;9396;51.510;11.934;2023-12-20T05:33:41;5.10;;;4.30;;
18532;SDS011;9396;51.510;11.934;2023-12-20T05:36:07;4.93;;;4.13;;
18532;SDS011;9396;51.510;11.934;2023-12-20T05:38:36;4.67;;;3.97;;
18532;SDS011;9396;51.510;11.934;2023-12-20T05:41:03;6.57;;;4.83;;
18532;SDS011;9396;51.510;11.934;2023-12-20T05:43:29;5.80;;;4.30;;
18532;SDS011;9396;51.510;11.934;2023-12-20T05:45:56;4.80;;;3.70;;
18532;SDS011;9396;51.510;11.934;2023-12-20T05:48:24;5.33;;;3.60;;
18532;SDS011;9396;51.510;11.934;2023-12-20T05:50:51;4.30;;;3.80;;
18532;SDS011;9396;51.510;11.934;2023-12-20T05:53:17;5.23;;;3.67;;
18532;SDS011;9396;51.510;11.934;2023-12-20T05:55:44;3.77;;;3.37;;
18532;SDS011;9396;51.510;11.934;2023-12-20T05:58:11;4.47;;;3.63;;
18532;SDS011;9396;51.510;11.934;2023-12-20T06:00:37;5.40;;;3.70;;
18532;SDS011;9396;51.510;11.934;2023-12-20T06:03:04;3.90;;;3.33;;
18532;SDS011;9396;51.510;11.934;2023-12-20T06:05:32;3.67;;;3.23;;
18532;SDS011;9396;51.510;11.934;2023-12-20T06:07:58;5.83;;;3.10;;
18532;SDS011;9396;51.510;11.934;2023-12-20T06:10:28;3.53;;;3.17;;
18532;SDS011;9396;51.510;11.934;2023-12-20T06:12:55;3.17;;;2.73;;
18532;SDS011;9396;51.510;11.934;2023-12-20T06:15:22;5.03;;;2.67;;
18532;SDS011;9396;51.510;11.934;2023-12-20T06:17:49;3.37;;;2.90;;
18532;SDS011;9396;51.510;11.934;2023-12-20T06:20:15;4.80;;;3.23;;
18532;SDS011;9396;51.510;11.934;2023-12-20T06:22:43;4.90;;;3.63;;
18532;SDS011;9396;51.510;11.934;2023-12-20T06:25:10;5.73;;;3.80;;
18532;SDS011;9396;51.510;11.934;2023-12-20T06:27:36;4.97;;;4.00;;
18532;SDS011;9396;51.510;11.934;2023-12-20T06:30:03;6.60;;;4.27;;
18532;SDS011;9396;51.510;11.934;2023-12-20T06:32:31;5.33;;;3.80;;
18532;SDS011;9396;51.510;11.934;2023-12-20T06:34:57;6.33;;;4.20;;
18532;SDS011;9396;51.510;11.934;2023-12-20T06:37:24;4.73;;;3.83;;
18532;SDS011;9396;51.510;11.934;2023-12-20T06:39:52;6.73;;;3.90;;
18532;SDS011;9396;51.510;11.934;2023-12-20T06:42:18;5.30;;;3.80;;
18532;SDS011;9396;51.510;11.934;2023-12-20T06:44:45;9.63;;;3.80;;
18532;SDS011;9396;51.510;11.934;2023-12-20T06:47:11;4.20;;;3.43;;
18532;SDS011;9396;51.510;11.934;2023-12-20T06:49:39;8.07;;;3.73;;
18532;SDS011;9396;51.510;11.934;2023-12-20T06:52:06;8.33;;;4.10;;
18532;SDS011;9396;51.510;11.934;2023-12-20T06:54:32;7.03;;;4.03;;
18532;SDS011;9396;51.510;11.934;2023-12-20T06:57:00;12.57;;;5.40;;
18532;SDS011;9396;51.510;11.934;2023-12-20T06:59:28;11.47;;;5.70;;
18532;SDS011;9396;51.510;11.934;2023-12-20T07:01:54;9.50;;;4.97;;
18532;SDS011;9396;51.510;11.934;2023-12-20T07:04:21;11.77;;;4.07;;
18532;SDS011;9396;51.510;11.934;2023-12-20T07:06:48;9.13;;;4.30;;
18532;SDS011;9396;51.510;11.934;2023-12-20T07:09:16;5.10;;;2.43;;
18532;SDS011;9396;51.510;11.934;2023-12-20T07:11:43;7.33;;;3.00;;
18532;SDS011;9396;51.510;11.934;2023-12-20T07:14:10;6.63;;;3.03;;
18532;SDS011;9396;51.510;11.934;2023-12-20T07:16:37;7.17;;;2.90;;
18532;SDS011;9396;51.510;11.934;2023-12-20T07:19:04;8.30;;;2.83;;
18532;SDS011;9396;51.510;11.934;2023-12-20T07:21:30;7.87;;;2.60;;
18532;SDS011;9396;51.510;11.934;2023-12-20T07:23:57;9.43;;;2.90;;
18532;SDS011;9396;51.510;11.934;2023-12-20T07:26:23;7.13;;;2.83;;
18532;SDS011;9396;51.510;11.934;2023-12-20T07:28:50;5.23;;;3.07;;
18532;SDS011;9396;51.510;11.934;2023-12-20T07:31:18;5.90;;;3.17;;
18532;SDS011;9396;51.510;11.934;2023-12-20T07:33:45;8.07;;;2.17;;
18532;SDS011;9396;51.510;11.934;2023-12-20T07:36:12;6.40;;;3.20;;
18532;SDS011;9396;51.510;11.934;2023-12-20T07:38:39;6.33;;;3.40;;
18532;SDS011;9396;51.510;11.934;2023-12-20T07:41:08;8.63;;;3.20;;
18532;SDS011;9396;51.510;11.934;2023-12-20T07:43:35;11.80;;;2.83;;
18532;SDS011;9396;51.510;11.934;2023-12-20T07:46:05;7.83;;;2.50;;
18532;SDS011;9396;51.510;11.934;2023-12-20T07:48:34;7.90;;;2.50;;
18532;SDS011;9396;51.510;11.934;2023-12-20T07:51:01;10.13;;;2.40;;
18532;SDS011;9396;51.510;11.934;2023-12-20T07:53:28;8.30;;;2.10;;
18532;SDS011;9396;51.510;11.934;2023-12-20T07:55:55;5.53;;;1.80;;
18532;SDS011;9396;51.510;11.934;2023-12-20T07:58:21;5.23;;;1.80;;
18532;SDS011;9396;51.510;11.934;2023-12-20T08:00:48;5.50;;;1.50;;
18532;SDS011;9396;51.510;11.934;2023-12-20T08:03:15;8.17;;;1.67;;
18532;SDS011;9396;51.510;11.934;2023-12-20T08:05:42;7.83;;;1.87;;
18532;SDS011;9396;51.510;11.934;2023-12-20T08:08:09;6.53;;;1.60;;
18532;SDS011;9396;51.510;11.934;2023-12-20T08:10:36;4.43;;;1.67;;
18532;SDS011;9396;51.510;11.934;2023-12-20T08:13:02;7.97;;;1.73;;
18532;SDS011;9396;51.510;11.934;2023-12-20T08:15:29;2.73;;;1.33;;
18532;SDS011;9396;51.510;11.934;2023-12-20T08:17:56;7.50;;;2.03;;
18532;SDS011;9396;51.510;11.934;2023-12-20T08:20:22;8.37;;;1.90;;
18532;SDS011;9396;51.510;11.934;2023-12-20T08:22:50;6.97;;;1.80;;
18532;SDS011;9396;51.510;11.934;2023-12-20T08:25:17;5.10;;;1.50;;
18532;SDS011;9396;51.510;11.934;2023-12-20T08:27:44;5.63;;;1.50;;
18532;SDS011;9396;51.510;11.934;2023-12-20T08:30:10;4.97;;;1.57;;
18532;SDS011;9396;51.510;11.934;2023-12-20T08:32:37;6.00;;;1.53;;
18532;SDS011;9396;51.510;11.934;2023-12-20T08:35:04;4.73;;;1.43;;
18532;SDS011;9396;51.510;11.934;2023-12-20T08:37:31;9.37;;;2.20;;
18532;SDS011;9396;51.510;11.934;2023-12-20T08:39:59;7.50;;;1.87;;
18532;SDS011;9396;51.510;11.934;2023-12-20T08:42:26;6.20;;;1.93;;
18532;SDS011;9396;51.510;11.934;2023-12-20T08:44:56;5.17;;;1.80;;
18532;SDS011;9396;51.510;11.934;2023-12-20T08:47:23;6.73;;;1.87;;
18532;SDS011;9396;51.510;11.934;2023-12-20T08:49:50;5.33;;;1.67;;
18532;SDS011;9396;51.510;11.934;2023-12-20T08:52:17;5.87;;;1.80;;
18532;SDS011;9396;51.510;11.934;2023-12-20T08:54:44;9.60;;;1.70;;
18532;SDS011;9396;51.510;11.934;2023-12-20T08:57:12;8.57;;;1.90;;
18532;SDS011;9396;51.510;11.934;2023-12-20T08:59:38;9.20;;;1.93;;
18532;SDS011;9396;51.510;11.934;2023-12-20T09:02:05;6.93;;;1.77;;
18532;SDS011;9396;51.510;11.934;2023-12-20T09:04:32;5.67;;;1.80;;
18532;SDS011;9396;51.510;11.934;2023-12-20T09:06:59;7.00;;;1.50;;
18532;SDS011;9396;51.510;11.934;2023-12-20T09:09:26;7.83;;;1.70;;
18532;SDS011;9396;51.510;11.934;2023-12-20T09:11:52;6.20;;;1.60;;
18532;SDS011;9396;51.510;11.934;2023-12-20T09:14:20;5.37;;;1.87;;
18532;SDS011;9396;51.510;11.934;2023-12-20T09:16:47;7.77;;;1.90;;
18532;SDS011;9396;51.510;11.934;2023-12-20T09:19:16;7.00;;;1.87;;
18532;SDS011;9396;51.510;11.934;2023-12-20T09:21:42;6.63;;;1.70;;
18532;SDS011;9396;51.510;11.934;2023-12-20T09:24:09;4.67;;;1.97;;
18532;SDS011;9396;51.510;11.934;2023-12-20T09:26:36;5.97;;;1.73;;
18532;SDS011;9396;51.510;11.934;2023-12-20T09:29:04;6.50;;;2.00;;
18532;SDS011;9396;51.510;11.934;2023-12-20T09:31:34;5.70;;;1.77;;
18532;SDS011;9396;51.510;11.934;2023-12-20T09:34:02;5.83;;;1.87;;
18532;SDS011;9396;51.510;11.934;2023-12-20T09:36:29;5.57;;;1.60;;
18532;SDS011;9396;51.510;11.934;2023-12-20T09:38:59;5.67;;;1.87;;
18532;SDS011;9396;51.510;11.934;2023-12-20T09:41:26;6.77;;;1.67;;
18532;SDS011;9396;51.510;11.934;2023-12-20T09:43:54;6.00;;;1.90;;
18532;SDS011;9396;51.510;11.934;2023-12-20T09:46:24;4.67;;;1.50;;
18532;SDS011;9396;51.510;11.934;2023-12-20T09:48:56;5.83;;;2.13;;
18532;SDS011;9396;51.510;11.934;2023-12-20T09:51:23;7.73;;;2.13;;
18532;SDS011;9396;51.510;11.934;2023-12-20T09:53:52;3.83;;;1.43;;
18532;SDS011;9396;51.510;11.934;2023-12-20T09:56:20;5.70;;;1.70;;
18532;SDS011;9396;51.510;11.934;2023-12-20T09:58:48;6.17;;;1.70;;
18532;SDS011;9396;51.510;11.934;2023-12-20T10:01:14;3.23;;;1.63;;
18532;SDS011;9396;51.510;11.934;2023-12-20T10:03:42;6.50;;;2.03;;
18532;SDS011;9396;51.510;11.934;2023-12-20T10:06:10;6.17;;;1.97;;
18532;SDS011;9396;51.510;11.934;2023-12-20T10:08:38;5.67;;;2.00;;
18532;SDS011;9396;51.510;11.934;2023-12-20T10:11:04;4.20;;;1.63;;
18532;SDS011;9396;51.510;11.934;2023-12-20T10:13:31;9.83;;;1.90;;
18532;SDS011;9396;51.510;11.934;2023-12-20T10:15:58;3.60;;;1.60;;
18532;SDS011;9396;51.510;11.934;2023-12-20T10:18:25;3.67;;;1.73;;
18532;SDS011;9396;51.510;11.934;2023-12-20T10:20:55;6.77;;;2.13;;
18532;SDS011;9396;51.510;11.934;2023-12-20T10:23:23;8.57;;;2.20;;
18532;SDS011;9396;51.510;11.934;2023-12-20T10:25:55;10.90;;;2.30;;
18532;SDS011;9396;51.510;11.934;2023-12-20T10:28:23;5.87;;;2.50;;
18532;SDS011;9396;51.510;11.934;2023-12-20T10:30:52;5.83;;;2.77;;
18532;SDS011;9396;51.510;11.934;2023-12-20T10:33:23;9.07;;;2.57;;
18532;SDS011;9396;51.510;11.934;2023-12-20T10:35:50;5.63;;;1.90;;
18532;SDS011;9396;51.510;11.934;2023-12-20T10:38:18;6.23;;;2.13;;
18532;SDS011;9396;51.510;11.934;2023-12-20T10:40:46;7.37;;;2.57;;
18532;SDS011;9396;51.510;11.934;2023-12-20T10:43:13;4.90;;;2.30;;
18532;SDS011;9396;51.510;11.934;2023-12-20T10:45:41;5.50;;;2.10;;
18532;SDS011;9396;51.510;11.934;2023-12-20T10:48:09;10.07;;;2.73;;
18532;SDS011;9396;51.510;11.934;2023-12-20T10:50:36;7.93;;;2.33;;
18532;SDS011;9396;51.510;11.934;2023-12-20T10:53:05;6.60;;;2.03;;
18532;SDS011;9396;51.510;11.934;2023-12-20T10:55:33;7.47;;;2.37;;
18532;SDS011;9396;51.510;11.934;2023-12-20T10:58:01;8.33;;;2.03;;
18532;SDS011;9396;51.510;11.934;2023-12-20T11:00:32;8.57;;;2.40;;
18532;SDS011;9396;51.510;11.934;2023-12-20T11:03:05;7.23;;;2.43;;
18532;SDS011;9396;51.510;11.934;2023-12-20T11:05:36;7.80;;;2.00;;
18532;SDS011;9396;51.510;11.934;2023-12-20T11:08:10;6.77;;;2.50;;
18532;SDS011;9396;51.510;11.934;2023-12-20T11:10:41;5.97;;;2.30;;
18532;SDS011;9396;51.510;11.934;2023-12-20T11:13:17;3.83;;;1.90;;
18532;SDS011;9396;51.510;11.934;2023-12-20T11:15:47;7.53;;;2.03;;
18532;SDS011;9396;51.510;11.934;2023-12-20T11:18:15;7.10;;;2.17;;
18532;SDS011;9396;51.510;11.934;2023-12-20T11:20:42;7.53;;;2.27;;
18532;SDS011;9396;51.510;11.934;2023-12-20T11:23:08;9.23;;;2.50;;
18532;SDS011;9396;51.510;11.934;2023-12-20T11:25:48;8.50;;;3.40;;
18532;SDS011;9396;51.510;11.934;2023-12-20T11:28:22;7.23;;;2.20;;
18532;SDS011;9396;51.510;11.934;2023-12-20T11:30:50;6.53;;;2.30;;
18532;SDS011;9396;51.510;11.934;2023-12-20T11:33:21;5.57;;;2.20;;
18532;SDS011;9396;51.510;11.934;2023-12-20T11:35:48;6.00;;;1.70;;
18532;SDS011;9396;51.510;11.934;2023-12-20T11:38:15;7.20;;;1.93;;
18532;SDS011;9396;51.510;11.934;2023-12-20T11:40:42;4.13;;;1.80;;
18532;SDS011;9396;51.510;11.934;2023-12-20T11:43:09;7.30;;;2.13;;
18532;SDS011;9396;51.510;11.934;2023-12-20T11:45:37;6.57;;;2.27;;
18532;SDS011;9396;51.510;11.934;2023-12-20T11:48:15;5.60;;;2.23;;
18532;SDS011;9396;51.510;11.934;2023-12-20T11:50:42;19.27;;;7.43;;
18532;SDS011;9396;51.510;11.934;2023-12-20T11:53:09;9.67;;;3.10;;
18532;SDS011;9396;51.510;11.934;2023-12-20T11:55:36;8.13;;;2.07;;
18532;SDS011;9396;51.510;11.934;2023-12-20T11:58:03;8.13;;;1.97;;
18532;SDS011;9396;51.510;11.934;2023-12-20T12:00:30;6.90;;;2.50;;
18532;SDS011;9396;51.510;11.934;2023-12-20T12:02:58;4.63;;;1.83;;
18532;SDS011;9396;51.510;11.934;2023-12-20T12:05:27;5.03;;;2.07;;
18532;SDS011;9396;51.510;11.934;2023-12-20T12:07:53;5.33;;;2.07;;
18532;SDS011;9396;51.510;11.934;2023-12-20T12:10:20;7.80;;;2.47;;
18532;SDS011;9396;51.510;11.934;2023-12-20T12:12:47;5.03;;;1.87;;
18532;SDS011;9396;51.510;11.934;2023-12-20T12:15:14;5.53;;;1.87;;
18532;SDS011;9396;51.510;11.934;2023-12-20T12:17:41;6.90;;;2.17;;
18532;SDS011;9396;51.510;11.934;2023-12-20T12:20:09;5.57;;;2.33;;
18532;SDS011;9396;51.510;11.934;2023-12-20T12:22:37;7.47;;;1.70;;
18532;SDS011;9396;51.510;11.934;2023-12-20T12:25:10;5.87;;;2.03;;
18532;SDS011;9396;51.510;11.934;2023-12-20T12:27:39;5.70;;;2.00;;
18532;SDS011;9396;51.510;11.934;2023-12-20T12:30:06;5.43;;;2.07;;
18532;SDS011;9396;51.510;11.934;2023-12-20T12:32:34;5.90;;;1.90;;
18532;SDS011;9396;51.510;11.934;2023-12-20T12:35:02;6.17;;;1.80;;
18532;SDS011;9396;51.510;11.934;2023-12-20T12:37:32;4.47;;;1.90;;
18532;SDS011;9396;51.510;11.934;2023-12-20T12:40:00;5.77;;;2.03;;
18532;SDS011;9396;51.510;11.934;2023-12-20T12:42:27;5.87;;;2.23;;
18532;SDS011;9396;51.510;11.934;2023-12-20T12:44:54;8.27;;;2.17;;
18532;SDS011;9396;51.510;11.934;2023-12-20T12:47:20;3.03;;;1.63;;
18532;SDS011;9396;51.510;11.934;2023-12-20T12:49:47;8.83;;;1.83;;
18532;SDS011;9396;51.510;11.934;2023-12-20T12:52:16;6.27;;;1.70;;
18532;SDS011;9396;51.510;11.934;2023-12-20T12:54:44;3.63;;;1.70;;
18532;SDS011;9396;51.510;11.934;2023-12-20T12:57:12;4.60;;;1.60;;
18532;SDS011;9396;51.510;11.934;2023-12-20T12:59:40;4.37;;;1.80;;
18532;SDS011;9396;51.510;11.934;2023-12-20T13:02:07;3.90;;;1.60;;
18532;SDS011;9396;51.510;11.934;2023-12-20T13:04:34;5.60;;;1.70;;
18532;SDS011;9396;51.510;11.934;2023-12-20T13:07:00;3.30;;;1.60;;
18532;SDS011;9396;51.510;11.934;2023-12-20T13:09:27;4.67;;;1.73;;
18532;SDS011;9396;51.510;11.934;2023-12-20T13:11:55;5.00;;;1.50;;
18532;SDS011;9396;51.510;11.934;2023-12-20T13:14:22;5.07;;;1.80;;
18532;SDS011;9396;51.510;11.934;2023-12-20T13:16:48;5.03;;;1.60;;
18532;SDS011;9396;51.510;11.934;2023-12-20T13:19:15;4.77;;;1.40;;
18532;SDS011;9396;51.510;11.934;2023-12-20T13:21:41;5.10;;;1.50;;
18532;SDS011;9396;51.510;11.934;2023-12-20T13:24:08;4.73;;;1.80;;
18532;SDS011;9396;51.510;11.934;2023-12-20T13:26:35;6.93;;;1.60;;
18532;SDS011;9396;51.510;11.934;2023-12-20T13:29:03;7.13;;;2.07;;
18532;SDS011;9396;51.510;11.934;2023-12-20T13:31:29;8.33;;;2.07;;
18532;SDS011;9396;51.510;11.934;2023-12-20T13:33:55;3.93;;;1.50;;
18532;SDS011;9396;51.510;11.934;2023-12-20T13:36:21;4.10;;;1.40;;
18532;SDS011;9396;51.510;11.934;2023-12-20T13:38:48;7.07;;;1.70;;
18532;SDS011;9396;51.510;11.934;2023-12-20T13:41:15;5.07;;;1.40;;
18532;SDS011;9396;51.510;11.934;2023-12-20T13:43:41;5.63;;;2.00;;
18532;SDS011;9396;51.510;11.934;2023-12-20T13:46:10;4.23;;;1.40;;
18532;SDS011;9396;51.510;11.934;2023-12-20T13:48:36;9.13;;;1.70;;
18532;SDS011;9396;51.510;11.934;2023-12-20T13:51:03;6.40;;;1.70;;
18532;SDS011;9396;51.510;11.934;2023-12-20T13:53:31;6.17;;;1.80;;
18532;SDS011;9396;51.510;11.934;2023-12-20T13:55:57;3.87;;;1.70;;
18532;SDS011;9396;51.510;11.934;2023-12-20T13:58:25;7.03;;;2.10;;
18532;SDS011;9396;51.510;11.934;2023-12-20T14:00:51;3.60;;;1.90;;
18532;SDS011;9396;51.510;11.934;2023-12-20T14:03:19;5.03;;;1.90;;
18532;SDS011;9396;51.510;11.934;2023-12-20T14:05:46;6.93;;;1.77;;
18532;SDS011;9396;51.510;11.934;2023-12-20T14:08:13;10.17;;;1.70;;
18532;SDS011;9396;51.510;11.934;2023-12-20T14:10:39;2.90;;;1.43;;
18532;SDS011;9396;51.510;11.934;2023-12-20T14:13:06;5.23;;;1.93;;
18532;SDS011;9396;51.510;11.934;2023-12-20T14:15:33;5.23;;;1.67;;
18532;SDS011;9396;51.510;11.934;2023-12-20T14:18:02;4.17;;;1.60;;
18532;SDS011;9396;51.510;11.934;2023-12-20T14:20:32;4.00;;;1.63;;
18532;SDS011;9396;51.510;11.934;2023-12-20T14:22:59;5.07;;;1.50;;
18532;SDS011;9396;51.510;11.934;2023-12-20T14:25:26;4.57;;;1.63;;
18532;SDS011;9396;51.510;11.934;2023-12-20T14:27:52;5.00;;;1.63;;
18532;SDS011;9396;51.510;11.934;2023-12-20T14:30:19;5.10;;;1.80;;
18532;SDS011;9396;51.510;11.934;2023-12-20T14:32:46;6.50;;;1.80;;
18532;SDS011;9396;51.510;11.934;2023-12-20T14:35:13;4.23;;;1.70;;
18532;SDS011;9396;51.510;11.934;2023-12-20T14:37:41;4.00;;;1.50;;
18532;SDS011;9396;51.510;11.934;2023-12-20T14:40:08;2.73;;;1.53;;
18532;SDS011;9396;51.510;11.934;2023-12-20T14:42:40;6.23;;;1.50;;
18532;SDS011;9396;51.510;11.934;2023-12-20T14:45:07;3.80;;;1.90;;
18532;SDS011;9396;51.510;11.934;2023-12-20T14:47:34;3.40;;;1.60;;